Time;durP1;ratioP1;P1;durP2;ratioP2;P2;SDS_P1;SDS_P2;PMS_P1;PMS_P2;Temp;Humidity;BMP_temperature;BMP_pressure;BME280_temperature;BME280_humidity;BME280_pressure;Samples;Min_cycle;Max_cycle;Signal;HPM_P1;HPM_P2
2022/09/28 00:00:30;;;;;;;7.67;3.40;;;9.70;1.00;;;;;;5037503;28;20421;-81
2022/09/28 00:03:05;;;;;;;7.27;3.50;;;9.70;1.00;;;;;;5035582;28;20437;-78
2022/09/28 00:05:32;;;;;;;7.17;3.70;;;9.70;1.00;;;;;;5016048;28;20453;-79
2022/09/28 00:08:03;;;;;;;7.40;3.40;;;9.70;1.00;;;;;;5015171;28;20548;-80
2022/09/28 00:10:42;;;;;;;7.57;3.30;;;9.70;1.00;;;;;;5027638;28;20552;-78
2022/09/28 00:13:14;;;;;;;8.50;3.83;;;9.70;1.00;;;;;;5030230;28;20441;-77
2022/09/28 00:15:42;;;;;;;7.40;3.50;;;9.70;1.00;;;;;;5028098;28;20450;-78
2022/09/28 00:18:12;;;;;;;7.55;3.67;;;9.60;1.00;;;;;;5017279;28;20445;-78
2022/09/28 00:20:42;;;;;;;7.23;4.10;;;9.60;1.00;;;;;;5019127;28;20237;-81
2022/09/28 00:23:14;;;;;;;7.53;3.80;;;9.50;1.00;;;;;;5027869;28;20472;-80
2022/09/28 00:25:45;;;;;;;7.30;3.70;;;9.40;1.00;;;;;;5037959;28;20425;-82
2022/09/28 00:28:12;;;;;;;6.72;3.47;;;9.40;1.00;;;;;;5042387;28;20225;-82
2022/09/28 00:30:42;;;;;;;7.00;3.43;;;9.40;1.00;;;;;;5040467;28;20347;-82
2022/09/28 00:33:12;;;;;;;6.90;3.70;;;9.50;1.00;;;;;;5039124;28;20479;-77
2022/09/28 00:35:43;;;;;;;7.10;3.40;;;9.50;1.00;;;;;;5035465;28;22275;-77
2022/09/28 00:38:15;;;;;;;7.60;3.50;;;9.60;1.00;;;;;;5034401;28;20288;-77
2022/09/28 00:40:43;;;;;;;7.50;3.43;;;9.60;1.00;;;;;;5036024;28;21003;-76
2022/09/28 00:43:20;;;;;;;6.87;3.67;;;9.50;1.00;;;;;;5035787;28;20498;-79
2022/09/28 00:46:02;;;;;;;6.80;3.78;;;9.50;1.00;;;;;;5037555;28;20455;-80
2022/09/28 00:48:42;;;;;;;8.27;3.35;;;9.40;1.00;;;;;;5036803;28;20230;-81
2022/09/28 00:51:13;;;;;;;6.87;3.20;;;9.60;1.00;;;;;;5037004;28;20234;-81
2022/09/28 00:53:45;;;;;;;6.95;3.40;;;9.60;1.00;;;;;;5039430;28;20453;-82
2022/09/28 00:56:18;;;;;;;7.60;3.50;;;9.70;1.00;;;;;;5039158;28;21008;-78
2022/09/28 00:58:54;;;;;;;7.17;3.50;;;9.70;1.00;;;;;;5038536;28;20238;-78
2022/09/28 01:01:28;;;;;;;6.90;3.57;;;9.80;1.00;;;;;;5037954;28;20421;-78
2022/09/28 01:03:56;;;;;;;8.10;3.37;;;9.80;1.00;;;;;;5040809;28;20461;-79
2022/09/28 01:06:29;;;;;;;7.37;3.40;;;9.80;1.00;;;;;;5038135;28;20425;-78
2022/09/28 01:09:04;;;;;;;7.63;3.70;;;9.80;1.00;;;;;;5036764;28;20527;-80
2022/09/28 01:11:38;;;;;;;6.90;3.33;;;9.80;1.00;;;;;;5038865;28;20484;-78
2022/09/28 01:14:14;;;;;;;7.57;3.63;;;9.80;1.00;;;;;;5033093;28;20523;-83
2022/09/28 01:16:55;;;;;;;9.17;3.77;;;9.80;1.00;;;;;;5035907;28;20484;-77
2022/09/28 01:19:50;;;;;;;7.20;3.50;;;9.80;1.00;;;;;;5034570;28;20457;-78
2022/09/28 01:22:43;;;;;;;10.70;4.07;;;9.80;1.00;;;;;;5038347;28;20465;-82
2022/09/28 01:25:33;;;;;;;8.10;3.43;;;9.90;1.00;;;;;;5036214;28;20453;-81
2022/09/28 01:28:21;;;;;;;6.73;3.50;;;9.80;1.00;;;;;;5039847;28;20457;-77
2022/09/28 01:31:02;;;;;;;8.70;4.20;;;9.90;1.00;;;;;;5038100;28;20445;-78
2022/09/28 01:33:43;;;;;;;7.80;3.47;;;9.90;1.00;;;;;;5035899;28;20456;-78
2022/09/28 01:36:20;;;;;;;7.73;3.30;;;9.80;1.00;;;;;;5018788;28;20454;-76
2022/09/28 01:52:31;;;;;;;6.80;3.00;;;9.90;1.00;;;;;;6137143;22;1563840;-82
2022/09/28 01:55:04;;;;;;;6.83;3.00;;;9.90;1.00;;;;;;6208565;23;20244;-82
2022/09/28 01:57:43;;;;;;;8.20;3.70;;;10.00;1.00;;;;;;6236270;22;20491;-81
2022/09/28 02:00:17;;;;;;;9.90;3.40;;;10.00;1.00;;;;;;6238923;22;20567;-83
2022/09/28 02:02:52;;;;;;;7.27;3.40;;;10.00;1.00;;;;;;6240078;22;20415;-81
2022/09/28 02:05:23;;;;;;;8.05;3.45;;;10.00;1.00;;;;;;6235091;22;21008;-80
2022/09/28 02:07:58;;;;;;;6.77;3.30;;;10.00;1.00;;;;;;6200481;22;20573;-81
2022/09/28 02:10:34;;;;;;;6.63;2.93;;;10.00;1.00;;;;;;6238287;22;20388;-82
2022/09/28 02:13:08;;;;;;;6.53;3.17;;;10.00;1.00;;;;;;6239251;22;20460;-81
2022/09/28 02:15:40;;;;;;;7.43;3.50;;;10.00;1.00;;;;;;6229501;22;20437;-82
2022/09/28 02:18:09;;;;;;;6.77;3.60;;;9.90;1.00;;;;;;6229762;22;20420;-81
2022/09/28 02:20:38;;;;;;;9.00;3.40;;;9.90;1.00;;;;;;6229732;22;20456;-81
2022/09/28 02:23:10;;;;;;;7.70;3.90;;;9.80;1.00;;;;;;6231049;22;20483;-80
2022/09/28 02:25:42;;;;;;;7.67;4.53;;;9.80;1.00;;;;;;6230270;22;20491;-82
2022/09/28 02:28:12;;;;;;;8.67;4.50;;;9.80;1.00;;;;;;6198781;22;21024;-83
2022/09/28 02:30:40;;;;;;;8.30;4.37;;;9.80;1.00;;;;;;6218936;22;20472;-82
2022/09/28 02:33:12;;;;;;;7.20;3.90;;;9.80;1.00;;;;;;6202437;22;20514;-81
2022/09/28 02:35:41;;;;;;;9.03;4.60;;;9.80;1.00;;;;;;6219806;22;20416;-82
2022/09/28 02:38:11;;;;;;;8.23;4.03;;;9.70;1.00;;;;;;6230680;22;20432;-81
2022/09/28 02:40:40;;;;;;;9.20;4.63;;;9.70;1.00;;;;;;6203695;23;20408;-82
2022/09/28 02:43:14;;;;;;;10.40;4.70;;;9.70;1.00;;;;;;6229717;22;20408;-82
2022/09/28 02:46:01;;;;;;;8.80;4.80;;;9.70;1.00;;;;;;6230961;22;20412;-81
2022/09/28 02:48:53;;;;;;;12.70;6.60;;;9.70;1.00;;;;;;6229544;22;20308;-83
2022/09/28 02:51:27;;;;;;;8.23;4.00;;;9.70;1.00;;;;;;6228644;22;20444;-83
2022/09/28 02:54:32;;;;;;;9.90;4.97;;;9.60;1.00;;;;;;6224779;22;20432;-83
2022/09/28 02:57:12;;;;;;;34.17;28.97;;;9.60;1.00;;;;;;6225585;22;20431;-83
2022/09/28 02:59:52;;;;;;;11.63;6.00;;;9.60;1.00;;;;;;6224616;22;20459;-82
2022/09/28 03:02:28;;;;;;;10.02;5.60;;;9.60;1.00;;;;;;6224957;22;20842;-82
2022/09/28 03:05:15;;;;;;;9.20;5.40;;;9.60;1.00;;;;;;6225211;22;20212;-82
2022/09/28 03:07:48;;;;;;;11.18;5.60;;;9.50;1.00;;;;;;6224468;22;20496;-82
2022/09/28 03:10:26;;;;;;;9.20;5.10;;;9.50;1.00;;;;;;6225584;22;20216;-82
2022/09/28 03:12:55;;;;;;;8.52;4.80;;;9.50;1.00;;;;;;6227105;22;20563;-82
2022/09/28 03:15:25;;;;;;;9.52;4.95;;;9.50;1.00;;;;;;6225290;22;20680;-83
2022/09/28 03:17:52;;;;;;;8.77;5.05;;;9.50;1.00;;;;;;6228510;22;20213;-82
2022/09/28 03:20:19;;;;;;;8.57;4.53;;;9.50;1.00;;;;;;6225281;22;20213;-82
2022/09/28 03:22:47;;;;;;;9.63;5.72;;;9.50;1.00;;;;;;6224814;22;20432;-82
2022/09/28 03:25:15;;;;;;;11.45;5.65;;;9.40;1.00;;;;;;6222678;22;20229;-82
2022/09/28 03:27:43;;;;;;;9.45;5.00;;;9.40;1.00;;;;;;6226408;22;20216;-82
2022/09/28 03:30:12;;;;;;;8.93;5.63;;;9.30;1.00;;;;;;6226150;22;20236;-82
2022/09/28 03:32:40;;;;;;;9.60;5.35;;;9.20;1.00;;;;;;6225513;22;20209;-83
2022/09/28 03:35:09;;;;;;;10.57;5.38;;;9.10;1.00;;;;;;6227916;22;20208;-84
2022/09/28 03:37:36;;;;;;;10.67;5.57;;;9.10;1.00;;;;;;6227458;22;20322;-84
2022/09/28 03:40:08;;;;;;;8.67;5.50;;;9.10;1.00;;;;;;6226670;22;20464;-83
2022/09/28 03:42:37;;;;;;;11.48;7.25;;;9.10;1.00;;;;;;6224926;22;20463;-81
2022/09/28 03:45:08;;;;;;;13.30;6.25;;;9.10;1.00;;;;;;6221947;22;20209;-81
2022/09/28 03:47:35;;;;;;;11.63;6.03;;;9.00;1.00;;;;;;6227153;22;20264;-82
2022/09/28 03:50:02;;;;;;;11.80;6.50;;;9.00;1.00;;;;;;6226334;22;20209;-81
2022/09/28 03:52:32;;;;;;;9.85;6.10;;;9.00;1.00;;;;;;6224936;22;20209;-82
2022/09/28 03:54:59;;;;;;;10.67;5.73;;;9.00;1.00;;;;;;6227188;22;20209;-82
2022/09/28 03:57:26;;;;;;;9.95;5.75;;;8.90;1.00;;;;;;6226123;22;20411;-82
2022/09/28 03:59:53;;;;;;;9.10;5.40;;;8.90;1.00;;;;;;6227954;22;20300;-82
2022/09/28 04:02:23;;;;;;;9.40;5.22;;;8.90;1.00;;;;;;6221766;22;20441;-82
2022/09/28 04:04:50;;;;;;;10.10;5.57;;;8.80;1.00;;;;;;6224719;22;20240;-82
2022/09/28 04:07:17;;;;;;;10.03;5.60;;;8.80;1.00;;;;;;6227807;22;20213;-83
2022/09/28 04:09:50;;;;;;;10.37;6.13;;;8.90;1.00;;;;;;6227678;22;21207;-84
2022/09/28 04:12:17;;;;;;;11.77;6.00;;;8.90;1.00;;;;;;6227249;22;20812;-82
2022/09/28 04:14:44;;;;;;;9.85;5.88;;;9.00;1.00;;;;;;6227191;22;20409;-82
2022/09/28 04:17:11;;;;;;;11.27;5.85;;;9.00;1.00;;;;;;6225297;22;20217;-82
2022/09/28 04:19:39;;;;;;;10.73;6.70;;;9.10;1.00;;;;;;6223915;22;20223;-81
2022/09/28 04:22:06;;;;;;;13.05;7.22;;;9.00;1.00;;;;;;6227769;22;20273;-82
2022/09/28 04:24:33;;;;;;;12.95;8.52;;;9.00;1.00;;;;;;6226952;22;20240;-83
2022/09/28 04:29:44;;;;;;;11.70;6.30;;;9.00;1.00;;;;;;6224757;22;21028;-81
2022/09/28 04:32:11;;;;;;;11.07;6.10;;;9.00;1.00;;;;;;6223563;22;20390;-80
2022/09/28 04:34:42;;;;;;;13.93;6.85;;;9.00;1.00;;;;;;6224223;22;20216;-80
2022/09/28 04:37:10;;;;;;;10.20;6.10;;;9.10;1.00;;;;;;6224099;22;20237;-81
2022/09/28 04:39:36;;;;;;;10.73;6.40;;;9.20;1.00;;;;;;6225695;22;20404;-80
2022/09/28 04:42:05;;;;;;;10.88;6.32;;;9.20;1.00;;;;;;6221665;22;20373;-80
2022/09/28 04:44:32;;;;;;;9.90;6.03;;;9.20;1.00;;;;;;6224158;22;20209;-81
2022/09/28 04:46:59;;;;;;;10.05;6.18;;;9.20;1.00;;;;;;6225318;22;20415;-82
2022/09/28 04:49:25;;;;;;;10.70;6.37;;;9.20;1.00;;;;;;6223545;22;20213;-82
2022/09/28 04:51:57;;;;;;;10.63;6.33;;;9.20;1.00;;;;;;6225076;22;20425;-82
2022/09/28 04:54:24;;;;;;;11.43;6.13;;;9.30;1.00;;;;;;6225333;22;21240;-81
2022/09/28 04:56:53;;;;;;;9.63;5.68;;;9.30;1.00;;;;;;6224187;22;20421;-81
2022/09/28 04:59:19;;;;;;;11.43;6.30;;;9.30;1.00;;;;;;6224121;22;20217;-81
2022/09/28 05:01:48;;;;;;;11.40;6.40;;;9.40;1.00;;;;;;6225196;22;20999;-81
2022/09/28 05:04:15;;;;;;;11.30;6.97;;;9.50;1.00;;;;;;6225886;22;21079;-80
2022/09/28 05:06:44;;;;;;;9.27;6.70;;;9.50;1.00;;;;;;6202220;22;20214;-81
2022/09/28 05:09:12;;;;;;;10.77;6.17;;;9.50;1.00;;;;;;6204891;22;20217;-81
2022/09/28 05:11:39;;;;;;;12.63;7.00;;;9.40;1.00;;;;;;6225092;22;20425;-81
2022/09/28 05:14:10;;;;;;;11.07;6.15;;;9.40;1.00;;;;;;6226551;22;20223;-80
2022/09/28 05:16:38;;;;;;;11.38;6.55;;;9.50;1.00;;;;;;6202011;23;20224;-81
2022/09/28 05:19:06;;;;;;;11.20;6.47;;;9.40;1.00;;;;;;6224930;22;20884;-80
2022/09/28 05:21:35;;;;;;;11.67;8.10;;;9.40;1.00;;;;;;6225662;22;20317;-81
2022/09/28 05:24:06;;;;;;;13.07;7.60;;;9.40;1.00;;;;;;6183897;22;20552;-80
2022/09/28 05:26:35;;;;;;;11.30;6.53;;;9.50;1.00;;;;;;6222673;22;20419;-81
2022/09/28 05:29:02;;;;;;;10.95;6.85;;;9.50;1.00;;;;;;6223740;22;20432;-81
2022/09/28 05:31:29;;;;;;;11.73;7.05;;;9.50;1.00;;;;;;6223089;22;20260;-80
2022/09/28 05:33:56;;;;;;;11.63;6.25;;;9.50;1.00;;;;;;6226981;22;20203;-81
2022/09/28 05:36:25;;;;;;;11.52;6.03;;;9.60;1.00;;;;;;6221627;22;20263;-81
2022/09/28 05:38:52;;;;;;;11.77;7.25;;;9.60;1.00;;;;;;6223513;22;20220;-81
2022/09/28 05:41:19;;;;;;;13.43;8.57;;;9.60;1.00;;;;;;6182051;22;20262;-81
2022/09/28 05:43:50;;;;;;;61.83;45.90;;;9.60;1.00;;;;;;6224529;22;20218;-81
2022/09/28 05:46:21;;;;;;;11.55;6.60;;;9.60;1.00;;;;;;6220774;22;20456;-83
2022/09/28 05:48:48;;;;;;;12.43;7.05;;;9.60;1.00;;;;;;6222454;22;20939;-83
2022/09/28 05:51:17;;;;;;;12.13;6.60;;;9.60;1.00;;;;;;6227375;22;20245;-83
2022/09/28 05:53:45;;;;;;;13.77;7.40;;;9.70;1.00;;;;;;6228001;22;20220;-83
2022/09/28 05:56:13;;;;;;;11.52;6.20;;;9.70;1.00;;;;;;6196672;22;20305;-83
2022/09/28 05:58:40;;;;;;;10.43;6.72;;;9.70;1.00;;;;;;6214763;22;20213;-82
2022/09/28 06:01:08;;;;;;;11.40;6.28;;;9.70;1.00;;;;;;6217343;22;20581;-82
2022/09/28 06:03:35;;;;;;;13.75;7.15;;;9.70;1.00;;;;;;6226353;22;20225;-83
2022/09/28 06:06:02;;;;;;;11.45;6.65;;;9.80;1.00;;;;;;6226629;22;20213;-83
2022/09/28 06:08:31;;;;;;;12.60;7.83;;;9.80;1.00;;;;;;6196952;22;20709;-81
2022/09/28 06:11:00;;;;;;;12.33;6.53;;;9.80;1.00;;;;;;6224071;22;20475;-80
2022/09/28 06:13:27;;;;;;;9.55;6.15;;;9.70;1.00;;;;;;6221870;22;20425;-80
2022/09/28 06:15:55;;;;;;;11.55;6.32;;;9.70;1.00;;;;;;6224070;22;20215;-78
2022/09/28 06:18:23;;;;;;;11.27;6.93;;;9.70;1.00;;;;;;6221622;22;20205;-78
2022/09/28 06:20:51;;;;;;;12.27;6.83;;;9.70;1.00;;;;;;6223012;22;20668;-79
2022/09/28 06:23:18;;;;;;;14.77;6.93;;;9.70;1.00;;;;;;6222008;22;20515;-80
2022/09/28 06:25:44;;;;;;;11.27;6.80;;;9.70;1.00;;;;;;6225587;22;20216;-80
2022/09/28 06:28:14;;;;;;;13.53;7.00;;;9.80;1.00;;;;;;6221690;22;20419;-79
2022/09/28 06:30:43;;;;;;;9.27;6.20;;;9.80;1.00;;;;;;6223181;22;20449;-79
2022/09/28 06:33:12;;;;;;;11.13;7.00;;;9.80;1.00;;;;;;6223063;22;20400;-80
2022/09/28 06:35:41;;;;;;;10.85;6.47;;;9.80;1.00;;;;;;6223209;22;20396;-79
2022/09/28 06:38:08;;;;;;;13.40;6.82;;;9.80;1.00;;;;;;6223799;22;20240;-79
2022/09/28 06:40:36;;;;;;;15.03;8.00;;;9.80;1.00;;;;;;6224492;22;20220;-82
2022/09/28 06:43:08;;;;;;;15.53;8.37;;;9.90;1.00;;;;;;6221040;22;20860;-79
2022/09/28 06:45:36;;;;;;;13.95;7.55;;;10.00;1.00;;;;;;6221556;22;20416;-78
2022/09/28 06:48:04;;;;;;;10.57;6.93;;;10.10;1.00;;;;;;6225107;22;20327;-79
2022/09/28 06:50:36;;;;;;;18.13;7.60;;;10.10;1.00;;;;;;6186404;23;20384;-79
2022/09/28 06:53:08;;;;;;;14.57;8.07;;;10.20;1.00;;;;;;6227937;22;20397;-79
2022/09/28 06:55:35;;;;;;;17.33;9.50;;;10.20;1.00;;;;;;6226467;22;20423;-79
2022/09/28 06:58:03;;;;;;;14.53;7.07;;;10.20;1.00;;;;;;6226160;22;20904;-80
2022/09/28 07:00:32;;;;;;;13.90;7.77;;;10.30;1.00;;;;;;6223813;22;20925;-78
2022/09/28 07:03:00;;;;;;;12.00;7.77;;;10.40;1.00;;;;;;6228128;22;21134;-78
2022/09/28 07:05:27;;;;;;;12.67;7.17;;;10.50;1.00;;;;;;6224568;22;21559;-79
2022/09/28 07:07:56;;;;;;;13.30;7.87;;;10.60;1.00;;;;;;6225830;22;20440;-78
2022/09/28 07:10:32;;;;;;;11.43;7.70;;;10.70;1.00;;;;;;6225595;22;20420;-79
2022/09/28 07:13:02;;;;;;;11.63;6.90;;;10.80;1.00;;;;;;6226503;22;20431;-78
2022/09/28 07:15:29;;;;;;;11.70;6.90;;;11.00;1.00;;;;;;6225677;22;20401;-78
2022/09/28 07:17:58;;;;;;;12.90;7.47;;;11.00;1.00;;;;;;6224941;22;20885;-77
2022/09/28 07:20:25;;;;;;;13.77;7.17;;;11.00;1.00;;;;;;6206725;22;20509;-78
2022/09/28 07:22:53;;;;;;;12.13;7.53;;;11.00;1.00;;;;;;6204640;22;20405;-78
2022/09/28 07:25:20;;;;;;;11.50;7.07;;;11.10;1.00;;;;;;6225191;22;20831;-80
2022/09/28 07:27:51;;;;;;;9.63;6.33;;;11.10;1.00;;;;;;6226697;22;20417;-80
2022/09/28 07:30:19;;;;;;;12.60;7.70;;;11.10;1.00;;;;;;6198132;22;20441;-78
2022/09/28 07:32:47;;;;;;;10.93;6.97;;;11.20;1.00;;;;;;6226773;22;20423;-79
2022/09/28 07:35:14;;;;;;;13.03;8.30;;;11.30;1.00;;;;;;6183766;22;20384;-80
2022/09/28 07:37:41;;;;;;;12.37;7.37;;;11.40;1.00;;;;;;6202966;22;20432;-81
2022/09/28 07:42:54;;;;;;;12.60;7.77;;;11.60;1.00;;;;;;6189506;22;20612;-79
2022/09/28 07:45:23;;;;;;;17.33;9.33;;;11.80;1.00;;;;;;6223130;22;20524;-81
2022/09/28 07:47:50;;;;;;;14.00;9.33;;;11.90;1.00;;;;;;6222577;22;20504;-80
2022/09/28 07:50:17;;;;;;;14.03;8.57;;;11.90;1.00;;;;;;6223699;22;20425;-79
2022/09/28 07:52:44;;;;;;;16.13;9.63;;;12.00;1.00;;;;;;6222698;22;20409;-78
2022/09/28 07:55:11;;;;;;;14.53;7.87;;;12.10;1.00;;;;;;6222541;22;20417;-78
2022/09/28 07:57:38;;;;;;;12.67;8.07;;;12.30;1.00;;;;;;6223830;22;20851;-78
2022/09/28 08:00:12;;;;;;;13.17;7.90;;;12.50;1.00;;;;;;6224004;22;20507;-78
2022/09/28 08:02:39;;;;;;;14.67;7.83;;;12.60;1.00;;;;;;6195697;23;20456;-78
2022/09/28 08:05:08;;;;;;;16.07;8.27;;;12.70;1.00;;;;;;6223514;22;20425;-78
2022/09/28 08:07:37;;;;;;;10.90;7.27;;;12.80;1.00;;;;;;6195230;23;20504;-79
2022/09/28 08:10:05;;;;;;;13.30;7.80;;;12.90;1.00;;;;;;6224554;22;20425;-79
2022/09/28 08:12:34;;;;;;;11.33;7.70;;;12.90;1.00;;;;;;6223478;22;20487;-78
2022/09/28 08:15:05;;;;;;;15.17;9.53;;;13.10;1.00;;;;;;6226916;22;20460;-80
2022/09/28 08:17:33;;;;;;;14.30;9.80;;;13.30;1.00;;;;;;6224075;22;20423;-79
2022/09/28 08:22:52;;;;;;;16.60;7.37;;;13.40;1.00;;;;;;6203688;22;20445;-79
2022/09/28 08:25:19;;;;;;;13.60;8.20;;;13.50;1.00;;;;;;6224882;22;20940;-79
2022/09/28 08:27:47;;;;;;;11.70;7.63;;;13.50;1.00;;;;;;6224778;22;20421;-79
2022/09/28 08:30:13;;;;;;;15.20;9.20;;;13.50;1.00;;;;;;6225319;22;20421;-78
2022/09/28 08:32:46;;;;;;;11.60;8.37;;;13.50;1.00;;;;;;6223789;22;20629;-79
2022/09/28 08:35:15;;;;;;;13.43;8.60;;;13.50;1.00;;;;;;6225086;22;20405;-78
2022/09/28 08:37:42;;;;;;;13.37;7.97;;;13.40;1.00;;;;;;6225573;22;20460;-80
2022/09/28 08:40:16;;;;;;;11.00;7.80;;;13.30;1.00;;;;;;6225568;22;20416;-79
2022/09/28 08:42:44;;;;;;;27.63;10.10;;;13.30;1.00;;;;;;6226618;22;20467;-80
2022/09/28 08:45:14;;;;;;;11.30;7.13;;;13.50;1.00;;;;;;6196630;22;20435;-78
2022/09/28 08:50:36;;;;;;;11.17;7.73;;;13.60;1.00;;;;;;6157114;22;20444;-79
2022/09/28 08:53:15;;;;;;;10.07;7.10;;;13.60;1.00;;;;;;6198267;23;20436;-80
2022/09/28 08:55:46;;;;;;;11.03;7.13;;;13.70;1.00;;;;;;6225054;22;20412;-79
2022/09/28 08:58:17;;;;;;;11.10;6.90;;;13.80;1.00;;;;;;6224498;22;21004;-80
2022/09/28 09:00:47;;;;;;;11.17;7.63;;;13.70;1.00;;;;;;6224819;22;20516;-78
2022/09/28 09:03:21;;;;;;;9.90;6.40;;;13.70;1.00;;;;;;6224213;22;20445;-80
2022/09/28 09:05:59;;;;;;;10.50;7.03;;;14.00;1.00;;;;;;6197003;23;20423;-79
2022/09/28 09:08:43;;;;;;;11.13;6.13;;;14.30;1.00;;;;;;6225559;22;20405;-79
2022/09/28 09:11:23;;;;;;;9.63;6.37;;;14.50;1.00;;;;;;6226164;22;20412;-81
2022/09/28 09:14:11;;;;;;;8.83;5.67;;;14.40;1.00;;;;;;6227158;22;21146;-80
2022/09/28 09:16:48;;;;;;;9.90;5.83;;;14.10;1.00;;;;;;6226714;22;20512;-80
2022/09/28 09:19:22;;;;;;;8.63;5.60;;;14.00;1.00;;;;;;6199896;22;20913;-80
2022/09/28 09:21:59;;;;;;;10.00;6.10;;;14.00;1.00;;;;;;6227509;22;20416;-79
2022/09/28 09:24:31;;;;;;;9.30;5.53;;;13.80;1.00;;;;;;6193650;22;20437;-81
2022/09/28 09:27:05;;;;;;;11.40;5.93;;;13.70;1.00;;;;;;6218390;22;20875;-81
2022/09/28 09:29:50;;;;;;;9.63;5.30;;;13.70;1.00;;;;;;6224931;22;20479;-81
2022/09/28 09:32:46;;;;;;;11.00;5.80;;;13.60;1.00;;;;;;6227709;22;20397;-80
2022/09/28 09:35:40;;;;;;;8.90;5.00;;;13.80;1.00;;;;;;6226223;22;20408;-82
2022/09/28 09:38:27;;;;;;;8.07;4.90;;;14.50;1.00;;;;;;6214728;22;20762;-80
2022/09/28 09:41:10;;;;;;;8.70;4.30;;;15.90;1.00;;;;;;6226040;22;20437;-79
2022/09/28 09:44:05;;;;;;;7.37;3.90;;;17.30;1.00;;;;;;6225824;22;20437;-80
2022/09/28 09:46:38;;;;;;;7.40;3.67;;;18.90;1.00;;;;;;6221238;22;20440;-79
2022/09/28 09:49:12;;;;;;;7.10;3.47;;;20.20;1.00;;;;;;6182843;22;20498;-79
2022/09/28 09:51:46;;;;;;;6.93;3.80;;;20.40;1.00;;;;;;6224178;22;20428;-79
2022/09/28 09:54:20;;;;;;;7.30;4.00;;;20.70;1.00;;;;;;6222915;22;20452;-82
2022/09/28 09:56:53;;;;;;;6.70;2.40;;;20.90;1.00;;;;;;6225783;22;20507;-79
2022/09/28 09:59:24;;;;;;;6.00;2.13;;;21.20;1.00;;;;;;6222574;22;20413;-79
2022/09/28 10:01:53;;;;;;;8.57;2.00;;;21.60;1.00;;;;;;6227239;22;20441;-80
2022/09/28 10:04:24;;;;;;;9.33;3.10;;;21.40;1.00;;;;;;6227214;22;20459;-80
2022/09/28 10:06:59;;;;;;;5.43;1.80;;;22.10;1.00;;;;;;6227988;22;20536;-80
2022/09/28 10:09:31;;;;;;;5.50;2.30;;;22.40;1.00;;;;;;6227740;22;20444;-80
2022/09/28 10:11:58;;;;;;;6.30;2.57;;;22.60;1.00;;;;;;6227997;22;20377;-80
2022/09/28 10:14:26;;;;;;;6.80;2.20;;;20.70;1.00;;;;;;6224412;22;20433;-80
2022/09/28 10:16:56;;;;;;;5.77;2.40;;;19.20;1.00;;;;;;6225140;22;20435;-81
2022/09/28 10:19:31;;;;;;;6.23;2.17;;;18.90;1.00;;;;;;6224373;22;20504;-81
2022/09/28 10:22:05;;;;;;;5.40;1.60;;;18.90;1.00;;;;;;6199170;23;20494;-80
2022/09/28 10:24:36;;;;;;;7.33;2.00;;;19.60;1.00;;;;;;6227064;22;20512;-81
2022/09/28 10:27:08;;;;;;;8.80;2.43;;;19.60;1.00;;;;;;6227666;22;20444;-79
2022/09/28 10:29:52;;;;;;;4.50;1.37;;;20.40;1.00;;;;;;6205876;22;20430;-80
2022/09/28 10:32:24;;;;;;;5.10;1.93;;;20.70;1.00;;;;;;6209475;22;20424;-82
2022/09/28 10:35:14;;;;;;;5.30;1.57;;;20.90;1.00;;;;;;6211948;22;20488;-81
2022/09/28 10:37:53;;;;;;;7.73;1.67;;;21.50;1.00;;;;;;6219916;22;20451;-82
2022/09/28 10:40:30;;;;;;;7.27;1.90;;;22.90;1.00;;;;;;6224370;22;20467;-81
2022/09/28 10:43:02;;;;;;;5.33;1.40;;;23.50;1.00;;;;;;6227260;22;20436;-80
2022/09/28 10:45:35;;;;;;;5.77;2.10;;;23.80;1.00;;;;;;6226478;22;20424;-80
2022/09/28 10:51:04;;;;;;;5.37;1.70;;;23.60;1.00;;;;;;6223276;22;20422;-81
2022/09/28 10:53:37;;;;;;;8.27;2.17;;;24.30;1.00;;;;;;6225611;22;20436;-81
2022/09/28 10:56:06;;;;;;;5.43;1.40;;;25.20;1.00;;;;;;6226139;22;20460;-79
2022/09/28 10:58:39;;;;;;;6.17;2.00;;;25.90;1.00;;;;;;6226628;22;20424;-80
2022/09/28 11:01:09;;;;;;;6.23;1.60;;;26.00;1.00;;;;;;6226717;22;21185;-80
2022/09/28 11:03:49;;;;;;;5.57;1.83;;;26.10;1.00;;;;;;6204065;22;20420;-79
2022/09/28 11:06:25;;;;;;;5.40;2.00;;;25.80;1.00;;;;;;6226712;22;20423;-79
2022/09/28 11:08:57;;;;;;;6.17;2.40;;;24.00;1.00;;;;;;6227429;22;20401;-80
2022/09/28 11:11:28;;;;;;;6.00;2.60;;;22.40;1.00;;;;;;6227692;22;20413;-81
2022/09/28 11:13:59;;;;;;;7.67;2.03;;;21.90;1.00;;;;;;6228518;22;20468;-82
2022/09/28 11:16:28;;;;;;;5.93;2.23;;;21.60;1.00;;;;;;6198948;22;20431;-82
2022/09/28 11:18:58;;;;;;;6.77;2.17;;;21.00;1.00;;;;;;6220978;22;20464;-81
2022/09/28 11:21:31;;;;;;;7.87;2.50;;;20.30;1.00;;;;;;6228277;22;21132;-80
2022/09/28 11:24:06;;;;;;;8.70;2.90;;;19.60;1.00;;;;;;6229772;22;20536;-85
2022/09/28 11:26:40;;;;;;;6.10;2.80;;;19.30;1.00;;;;;;6228737;22;20509;-82
2022/09/28 11:29:20;;;;;;;6.37;2.90;;;18.80;1.00;;;;;;6226975;22;21109;-84
2022/09/28 11:31:47;;;;;;;7.87;3.23;;;18.70;1.00;;;;;;6229314;22;20416;-85
2022/09/28 11:34:22;;;;;;;5.80;2.90;;;18.70;1.00;;;;;;6226782;22;20421;-81
2022/09/28 11:37:07;;;;;;;9.70;3.70;;;19.20;1.00;;;;;;6201274;23;20497;-84
2022/09/28 11:39:45;;;;;;;8.20;3.10;;;19.90;1.00;;;;;;6199251;23;20936;-79
2022/09/28 11:42:23;;;;;;;7.43;2.83;;;20.50;1.00;;;;;;6192013;22;20404;-84
2022/09/28 11:44:56;;;;;;;5.30;2.20;;;20.60;1.00;;;;;;6193221;22;20500;-86
2022/09/28 11:47:43;;;;;;;5.10;2.30;;;20.80;1.00;;;;;;6227699;22;20380;-81
2022/09/28 11:50:26;;;;;;;5.60;2.17;;;20.50;1.00;;;;;;6230706;22;20416;-82
2022/09/28 11:53:00;;;;;;;7.00;2.20;;;19.60;1.00;;;;;;6231766;22;20428;-83
2022/09/28 11:55:36;;;;;;;5.93;1.90;;;19.00;1.00;;;;;;6229496;22;20408;-84
2022/09/28 11:58:11;;;;;;;5.57;2.10;;;18.40;1.00;;;;;;6229136;22;21100;-81
2022/09/28 12:00:57;;;;;;;5.60;2.03;;;17.40;1.00;;;;;;6222278;22;20397;-83
2022/09/28 12:03:36;;;;;;;6.97;2.53;;;17.10;1.00;;;;;;6229212;22;20428;-79
2022/09/28 12:06:12;;;;;;;6.17;2.20;;;17.50;1.00;;;;;;6233504;22;20409;-81
2022/09/28 12:08:45;;;;;;;6.00;1.90;;;17.60;1.00;;;;;;6166510;23;20421;-82
2022/09/28 12:11:20;;;;;;;6.20;2.07;;;18.00;1.00;;;;;;6227081;22;20448;-82
2022/09/28 12:13:51;;;;;;;6.70;2.20;;;18.60;1.00;;;;;;6199515;22;20456;-83
2022/09/28 12:16:24;;;;;;;5.83;2.00;;;18.80;1.00;;;;;;6232905;22;20401;-83
2022/09/28 12:19:02;;;;;;;5.50;2.50;;;18.80;1.00;;;;;;6200460;22;20432;-85
2022/09/28 12:21:56;;;;;;;8.60;2.90;;;19.00;1.00;;;;;;6230711;22;20393;-83
2022/09/28 12:24:27;;;;;;;6.40;2.17;;;19.30;1.00;;;;;;6231268;22;20408;-82
2022/09/28 12:27:06;;;;;;;5.87;2.40;;;19.20;1.00;;;;;;6227700;22;20534;-84
2022/09/28 12:29:46;;;;;;;4.80;1.57;;;18.60;1.00;;;;;;6228750;22;20508;-83
2022/09/28 12:32:34;;;;;;;5.40;2.23;;;17.60;1.00;;;;;;6227575;22;20455;-84
2022/09/28 12:35:17;;;;;;;5.90;2.10;;;17.10;1.00;;;;;;6225801;22;20816;-78
2022/09/28 12:38:07;;;;;;;5.37;1.67;;;16.80;1.00;;;;;;6223639;22;20409;-77
2022/09/28 12:40:46;;;;;;;4.80;1.40;;;16.60;1.00;;;;;;6223079;22;20403;-78
2022/09/28 12:43:41;;;;;;;5.40;1.33;;;16.40;1.00;;;;;;6195789;22;20504;-80
2022/09/28 12:46:23;;;;;;;4.70;1.30;;;16.20;1.00;;;;;;6219373;22;20815;-79
2022/09/28 12:49:23;;;;;;;5.63;1.93;;;15.90;1.00;;;;;;6222540;22;20920;-81
2022/09/28 12:51:52;;;;;;;5.80;1.60;;;15.60;1.00;;;;;;6219750;22;20533;-80
2022/09/28 12:54:42;;;;;;;5.50;1.27;;;15.60;1.00;;;;;;6221856;22;20440;-79
2022/09/28 12:57:36;;;;;;;6.40;1.60;;;15.50;1.00;;;;;;6223316;22;20508;-78
2022/09/28 13:00:10;;;;;;;6.37;2.00;;;15.50;1.00;;;;;;6221031;22;20424;-78
2022/09/28 13:03:08;;;;;;;5.50;1.70;;;15.40;1.00;;;;;;6222512;22;20430;-78
2022/09/28 13:06:07;;;;;;;5.23;1.60;;;15.20;1.00;;;;;;6222945;22;20499;-78
2022/09/28 13:11:32;;;;;;;5.93;2.03;;;14.90;1.00;;;;;;6220402;22;20389;-78
2022/09/28 13:14:20;;;;;;;5.80;1.80;;;14.80;1.00;;;;;;6219324;22;21107;-78
2022/09/28 13:16:54;;;;;;;5.77;1.47;;;14.60;1.00;;;;;;6219602;22;20425;-77
2022/09/28 13:19:32;;;;;;;5.47;1.47;;;14.50;1.00;;;;;;6216570;22;20948;-78
2022/09/28 13:22:18;;;;;;;5.83;1.40;;;14.40;1.00;;;;;;6195642;22;20548;-77
2022/09/28 13:24:47;;;;;;;5.30;1.30;;;14.30;1.00;;;;;;6210233;22;20436;-78
2022/09/28 13:27:18;;;;;;;5.23;1.27;;;14.30;1.00;;;;;;6218734;22;20787;-77
2022/09/28 13:29:49;;;;;;;5.20;1.40;;;14.20;1.00;;;;;;6192270;23;20456;-77
2022/09/28 13:32:19;;;;;;;6.30;1.83;;;14.30;1.00;;;;;;6220621;22;20428;-77
2022/09/28 13:34:49;;;;;;;8.03;2.20;;;14.50;1.00;;;;;;6220370;22;20456;-78
2022/09/28 13:37:24;;;;;;;6.47;1.63;;;14.60;1.00;;;;;;6218241;22;20433;-78
2022/09/28 13:39:52;;;;;;;6.13;1.40;;;14.70;1.00;;;;;;6220887;22;20435;-77
2022/09/28 13:42:57;;;;;;;9.73;1.93;;;14.80;1.00;;;;;;6225454;22;20807;-78
2022/09/28 13:45:55;;;;;;;6.03;1.20;;;14.80;1.00;;;;;;6222427;22;20515;-78
2022/09/28 13:48:37;;;;;;;4.93;1.33;;;14.60;1.00;;;;;;6222159;22;20409;-77
2022/09/28 13:51:30;;;;;;;7.60;1.63;;;14.70;1.00;;;;;;6222375;22;20515;-78
2022/09/28 13:54:23;;;;;;;6.17;1.77;;;14.70;1.00;;;;;;6180200;23;20456;-79
2022/09/28 13:56:57;;;;;;;5.40;1.60;;;14.70;1.00;;;;;;6223160;22;20979;-79
2022/09/28 13:59:27;;;;;;;6.30;2.23;;;14.80;1.00;;;;;;6190449;22;20428;-80